Time;durP1;ratioP1;P1;durP2;ratioP2;P2;SDS_P1;SDS_P2;PMS_P1;PMS_P2;Temp;Humidity;BMP_temperature;BMP_pressure;BME280_temperature;BME280_humidity;BME280_pressure;Samples;Min_cycle;Max_cycle;Signal;HPM_P1;HPM_P2
2021/12/27 00:00:55;;;;;;;11.80;5.95;;;17.40;57.00;;;;;;5004378;28;20026;-49
2021/12/27 00:03:21;;;;;;;10.93;6.13;;;17.40;57.00;;;;;;5003997;28;20397;-52
2021/12/27 00:05:47;;;;;;;11.23;6.30;;;17.50;57.00;;;;;;5004979;28;20115;-60
2021/12/27 00:08:12;;;;;;;11.20;5.85;;;17.40;57.60;;;;;;5004725;28;20053;-58
2021/12/27 00:10:38;;;;;;;11.20;5.30;;;17.40;56.90;;;;;;5004240;28;20036;-55
2021/12/27 00:13:04;;;;;;;11.65;5.28;;;17.50;56.90;;;;;;5003691;28;20404;-55
2021/12/27 00:15:29;;;;;;;11.18;5.72;;;17.50;56.90;;;;;;5003534;28;20040;-54
2021/12/27 00:17:55;;;;;;;10.48;5.47;;;17.50;56.90;;;;;;5004046;28;20030;-54
2021/12/27 00:20:21;;;;;;;9.88;5.18;;;17.50;56.90;;;;;;5003113;28;20030;-57
2021/12/27 00:22:47;;;;;;;8.98;5.28;;;17.50;56.90;;;;;;5003412;28;20045;-53
2021/12/27 00:25:12;;;;;;;10.45;5.20;;;17.50;56.80;;;;;;5003575;28;20747;-50
2021/12/27 00:27:38;;;;;;;10.18;4.97;;;17.50;56.80;;;;;;5003770;28;20034;-54
2021/12/27 00:30:05;;;;;;;6.68;4.22;;;17.50;56.80;;;;;;5002802;28;20030;-51
2021/12/27 00:32:32;;;;;;;8.32;5.18;;;17.50;56.70;;;;;;5003109;28;20393;-50
2021/12/27 00:34:58;;;;;;;6.65;4.63;;;17.50;56.70;;;;;;5003343;28;20029;-52
2021/12/27 00:37:24;;;;;;;6.90;4.63;;;17.50;56.70;;;;;;5003924;28;20041;-55
2021/12/27 00:39:49;;;;;;;8.35;4.80;;;17.50;56.70;;;;;;4992968;28;20037;-57
2021/12/27 00:42:15;;;;;;;9.32;4.78;;;17.40;56.60;;;;;;5001940;28;20034;-51
2021/12/27 00:44:40;;;;;;;7.55;4.97;;;17.40;56.60;;;;;;5001681;28;20572;-52
2021/12/27 00:47:06;;;;;;;8.60;4.80;;;17.40;56.50;;;;;;5002742;28;20033;-56
2021/12/27 00:49:31;;;;;;;7.85;5.13;;;17.40;56.50;;;;;;5002856;28;20030;-58
2021/12/27 00:51:57;;;;;;;8.40;4.88;;;17.40;56.50;;;;;;5003417;28;20029;-50
2021/12/27 00:54:22;;;;;;;10.63;4.53;;;17.40;56.50;;;;;;4998214;28;20577;-51
2021/12/27 00:56:48;;;;;;;9.43;4.22;;;17.40;56.40;;;;;;5002749;28;20030;-57
2021/12/27 00:59:13;;;;;;;8.40;4.30;;;17.40;56.40;;;;;;5002474;28;20040;-56
2021/12/27 01:01:39;;;;;;;10.02;4.57;;;17.40;56.50;;;;;;5002707;28;20038;-56
2021/12/27 01:04:05;;;;;;;9.88;4.45;;;17.40;56.40;;;;;;5002502;28;20034;-58
2021/12/27 01:06:31;;;;;;;5.18;3.65;;;17.40;56.30;;;;;;5002859;28;20113;-59
2021/12/27 01:08:56;;;;;;;7.50;3.92;;;17.40;56.30;;;;;;5003324;28;20513;-55
2021/12/27 01:13:59;;;;;;;6.50;3.75;;;17.40;56.20;;;;;;5000594;28;20049;-55
2021/12/27 01:16:25;;;;;;;8.00;3.90;;;17.40;56.10;;;;;;5001959;28;20440;-51
2021/12/27 01:18:50;;;;;;;7.32;4.57;;;17.40;56.10;;;;;;5002371;28;20113;-53
2021/12/27 01:21:18;;;;;;;6.75;4.05;;;17.40;56.00;;;;;;5002047;28;20048;-59
2021/12/27 01:23:44;;;;;;;7.60;4.32;;;17.40;56.00;;;;;;5001565;28;20697;-58
2021/12/27 01:26:10;;;;;;;5.40;3.63;;;17.40;56.00;;;;;;5000467;28;20034;-57
2021/12/27 01:28:36;;;;;;;6.63;4.18;;;17.40;56.10;;;;;;5002600;28;20520;-57
2021/12/27 01:31:01;;;;;;;7.47;3.97;;;17.40;56.20;;;;;;5003486;28;20619;-54
2021/12/27 01:33:27;;;;;;;7.35;4.20;;;17.30;56.10;;;;;;5002805;28;20117;-53
2021/12/27 01:35:53;;;;;;;5.85;3.70;;;17.30;56.20;;;;;;5001958;28;20033;-58
2021/12/27 01:38:19;;;;;;;6.25;3.92;;;17.30;56.30;;;;;;5000747;28;20030;-53
2021/12/27 01:40:46;;;;;;;6.38;3.30;;;17.30;56.30;;;;;;5001636;28;20038;-51
2021/12/27 01:43:12;;;;;;;6.32;3.42;;;17.30;56.40;;;;;;5001543;28;20030;-52
2021/12/27 01:45:43;;;;;;;5.55;3.70;;;17.20;56.40;;;;;;5002043;28;20073;-53
2021/12/27 01:48:09;;;;;;;7.28;3.63;;;17.20;56.50;;;;;;5001802;28;20026;-56
2021/12/27 01:50:36;;;;;;;6.63;4.20;;;17.20;56.50;;;;;;5001977;28;20041;-55
2021/12/27 01:53:02;;;;;;;5.57;3.75;;;17.20;56.50;;;;;;5002327;28;20113;-52
2021/12/27 01:55:28;;;;;;;5.25;3.25;;;17.20;56.60;;;;;;5001333;28;20140;-54
2021/12/27 01:57:53;;;;;;;7.22;3.72;;;17.20;56.50;;;;;;5001296;28;20038;-57
2021/12/27 02:00:19;;;;;;;6.03;3.22;;;17.20;56.50;;;;;;4981309;28;20030;-54
2021/12/27 02:02:45;;;;;;;4.63;3.47;;;17.20;56.50;;;;;;4998741;28;20041;-58
2021/12/27 02:05:11;;;;;;;4.90;3.35;;;17.20;56.50;;;;;;5001133;28;20030;-58
2021/12/27 02:07:37;;;;;;;4.85;3.17;;;17.20;56.70;;;;;;5001361;28;20038;-51
2021/12/27 02:10:03;;;;;;;5.15;3.30;;;17.20;56.60;;;;;;5001047;28;20026;-52
2021/12/27 02:12:29;;;;;;;4.50;3.22;;;17.20;56.60;;;;;;5002573;28;20144;-58
2021/12/27 02:14:55;;;;;;;4.45;3.28;;;17.10;56.60;;;;;;5002164;28;20109;-49
2021/12/27 02:17:21;;;;;;;7.65;3.53;;;17.10;56.70;;;;;;5002378;28;20284;-54
2021/12/27 02:19:52;;;;;;;4.80;3.20;;;17.10;56.70;;;;;;5001322;28;20040;-56
2021/12/27 02:22:18;;;;;;;6.25;3.58;;;17.10;56.80;;;;;;5001965;28;20026;-53
2021/12/27 02:24:43;;;;;;;4.78;3.08;;;17.00;56.70;;;;;;5001633;28;20049;-52
2021/12/27 02:27:12;;;;;;;6.15;3.47;;;17.00;56.80;;;;;;5000360;28;20409;-55
2021/12/27 02:29:38;;;;;;;5.55;3.60;;;17.00;56.80;;;;;;5001421;28;20046;-57
2021/12/27 02:32:04;;;;;;;4.28;3.17;;;17.00;56.80;;;;;;5001825;28;20535;-57
2021/12/27 02:34:29;;;;;;;4.45;3.28;;;16.90;56.90;;;;;;5001702;28;20037;-52
2021/12/27 02:36:55;;;;;;;7.43;3.45;;;16.90;56.90;;;;;;5014829;22;20440;-54
2021/12/27 02:39:20;;;;;;;5.35;3.45;;;16.80;56.90;;;;;;5013397;28;20096;-51
2021/12/27 02:41:46;;;;;;;4.35;3.22;;;16.80;56.90;;;;;;5020073;28;20030;-51
2021/12/27 02:44:11;;;;;;;6.53;3.45;;;16.80;56.90;;;;;;5007671;28;20410;-55
2021/12/27 02:46:37;;;;;;;5.00;3.10;;;16.80;57.00;;;;;;4993521;28;20041;-57
2021/12/27 02:49:02;;;;;;;4.07;3.10;;;16.80;56.90;;;;;;4984899;28;20756;-56
2021/12/27 02:51:28;;;;;;;4.13;3.22;;;16.70;56.90;;;;;;4993036;28;20045;-52
2021/12/27 02:53:53;;;;;;;7.30;3.40;;;16.70;57.00;;;;;;4982631;28;20650;-57
2021/12/27 02:56:19;;;;;;;5.75;3.15;;;16.70;56.90;;;;;;4989245;28;20033;-55
2021/12/27 02:58:46;;;;;;;4.60;2.75;;;16.70;56.90;;;;;;4983284;28;20433;-52
2021/12/27 03:01:13;;;;;;;5.50;3.33;;;16.70;56.90;;;;;;4983565;28;20038;-57
2021/12/27 03:03:39;;;;;;;4.70;2.92;;;16.70;57.00;;;;;;4984874;28;20045;-56
2021/12/27 03:06:05;;;;;;;5.50;3.05;;;16.70;57.00;;;;;;4987445;28;20030;-53
2021/12/27 03:08:30;;;;;;;4.60;3.30;;;16.70;57.00;;;;;;4984478;28;20109;-54
2021/12/27 03:10:57;;;;;;;3.10;2.60;;;16.60;57.00;;;;;;4984958;28;20030;-55
2021/12/27 03:13:34;;;;;;;4.78;2.85;;;16.70;57.00;;;;;;4984698;28;20037;-56
2021/12/27 03:16:05;;;;;;;6.43;3.35;;;16.70;57.00;;;;;;4977351;28;20052;-59
2021/12/27 03:18:32;;;;;;;6.75;3.50;;;16.60;57.60;;;;;;4983563;28;20038;-55
2021/12/27 03:20:57;;;;;;;5.18;3.03;;;16.60;57.00;;;;;;4988707;28;20397;-57
2021/12/27 03:23:23;;;;;;;6.47;3.42;;;16.70;57.00;;;;;;4984185;28;20030;-55
2021/12/27 03:25:49;;;;;;;5.25;2.92;;;16.70;56.90;;;;;;4984870;28;20042;-53
2021/12/27 03:28:14;;;;;;;5.45;2.95;;;16.80;56.80;;;;;;4984321;28;20058;-52
2021/12/27 03:30:40;;;;;;;4.32;3.42;;;16.90;56.80;;;;;;4984755;28;20034;-55
2021/12/27 03:33:06;;;;;;;6.05;3.35;;;16.90;56.60;;;;;;4981834;28;20031;-57
2021/12/27 03:35:35;;;;;;;5.03;3.15;;;17.00;56.50;;;;;;4984682;28;20424;-55
2021/12/27 03:38:00;;;;;;;3.67;2.75;;;17.00;56.30;;;;;;4988024;28;20125;-52
2021/12/27 03:40:26;;;;;;;5.97;2.92;;;17.10;56.20;;;;;;4984375;28;20570;-55
2021/12/27 03:42:52;;;;;;;3.95;2.72;;;17.20;56.10;;;;;;4984241;28;20397;-55
2021/12/27 03:45:44;;;;;;;4.72;2.83;;;17.20;56.10;;;;;;4983086;28;20035;-52
2021/12/27 03:48:10;;;;;;;4.57;2.72;;;17.30;56.10;;;;;;4981980;28;20223;-56
2021/12/27 03:50:36;;;;;;;4.82;2.97;;;17.30;56.10;;;;;;4983518;28;20507;-55
2021/12/27 03:53:02;;;;;;;4.70;3.17;;;17.30;56.10;;;;;;4983439;28;20026;-56
2021/12/27 03:55:27;;;;;;;5.90;2.90;;;17.30;56.10;;;;;;4984953;28;20145;-53
2021/12/27 03:57:55;;;;;;;6.07;2.72;;;17.30;56.10;;;;;;4982724;28;20034;-54
2021/12/27 04:02:49;;;;;;;5.05;2.78;;;17.40;56.10;;;;;;4982753;28;20036;-56
2021/12/27 04:05:15;;;;;;;5.00;2.85;;;17.40;56.10;;;;;;4983242;28;20046;-54
2021/12/27 04:07:43;;;;;;;4.53;2.80;;;17.40;56.10;;;;;;4983383;28;20116;-57
2021/12/27 04:10:09;;;;;;;4.35;2.78;;;17.40;56.10;;;;;;4984047;28;20026;-51
2021/12/27 04:12:35;;;;;;;3.90;2.83;;;17.50;56.20;;;;;;4976103;28;20030;-57
2021/12/27 04:15:01;;;;;;;4.38;2.63;;;17.50;56.20;;;;;;4981070;28;20125;-51
2021/12/27 04:17:26;;;;;;;4.90;2.95;;;17.50;56.20;;;;;;4978967;28;20042;-55
2021/12/27 04:19:52;;;;;;;4.35;3.10;;;17.50;56.20;;;;;;4982558;28;20445;-54
2021/12/27 04:22:17;;;;;;;3.95;2.60;;;17.50;56.20;;;;;;4978088;28;20031;-53
2021/12/27 04:24:43;;;;;;;3.85;2.60;;;17.50;56.20;;;;;;4980433;28;20030;-51
2021/12/27 04:27:08;;;;;;;6.15;2.83;;;17.50;56.20;;;;;;4987546;28;20481;-56
2021/12/27 04:29:34;;;;;;;4.72;3.00;;;17.50;56.20;;;;;;4984645;28;20057;-57
2021/12/27 04:31:59;;;;;;;4.15;2.80;;;17.50;56.20;;;;;;4981928;28;20413;-55
2021/12/27 04:34:25;;;;;;;3.08;2.22;;;17.50;56.20;;;;;;4983818;28;20045;-54
2021/12/27 04:36:50;;;;;;;4.72;2.70;;;17.50;56.10;;;;;;4983696;28;20121;-54
2021/12/27 04:39:16;;;;;;;4.43;2.55;;;17.50;56.10;;;;;;4982122;28;20030;-55
2021/12/27 04:41:41;;;;;;;3.75;2.95;;;17.50;56.10;;;;;;4982208;28;20741;-51
2021/12/27 04:44:07;;;;;;;4.85;2.80;;;17.50;56.10;;;;;;4982033;28;20045;-54
2021/12/27 04:46:32;;;;;;;4.45;2.58;;;17.50;56.10;;;;;;4982928;28;20030;-55
2021/12/27 04:48:58;;;;;;;5.00;2.55;;;17.50;56.00;;;;;;4984337;28;20033;-52
2021/12/27 04:51:23;;;;;;;3.40;2.25;;;17.50;56.00;;;;;;4983069;28;20038;-52
2021/12/27 04:53:49;;;;;;;5.50;2.70;;;17.50;56.00;;;;;;4981700;28;20720;-54
2021/12/27 04:56:15;;;;;;;4.22;2.63;;;17.50;56.00;;;;;;4982324;28;20030;-54
2021/12/27 04:58:43;;;;;;;4.50;2.88;;;17.50;55.90;;;;;;4981845;28;20038;-56
2021/12/27 05:01:09;;;;;;;5.38;2.63;;;17.50;55.90;;;;;;4980949;28;20027;-54
2021/12/27 05:03:34;;;;;;;4.32;3.15;;;17.50;55.70;;;;;;4985886;28;20039;-54
2021/12/27 05:06:00;;;;;;;3.90;2.55;;;17.50;55.70;;;;;;4981641;28;20191;-55
2021/12/27 05:08:25;;;;;;;3.63;2.67;;;17.50;55.70;;;;;;4982121;28;20655;-51
2021/12/27 05:10:51;;;;;;;4.90;2.92;;;17.50;55.60;;;;;;4981972;28;20037;-54
2021/12/27 05:13:17;;;;;;;3.78;2.58;;;17.50;55.60;;;;;;4984482;28;20034;-54
2021/12/27 05:15:43;;;;;;;4.63;3.10;;;17.50;55.60;;;;;;4982471;28;20030;-55
2021/12/27 05:18:09;;;;;;;4.43;2.60;;;17.50;55.60;;;;;;4985417;28;20125;-54
2021/12/27 05:20:34;;;;;;;4.30;3.22;;;17.50;55.60;;;;;;4981932;28;20509;-52
2021/12/27 05:23:00;;;;;;;4.85;3.10;;;17.50;55.60;;;;;;4981579;28;20034;-54
2021/12/27 05:25:25;;;;;;;5.82;3.15;;;17.40;55.60;;;;;;4982381;28;20054;-58
2021/12/27 05:27:51;;;;;;;4.05;2.67;;;17.50;55.60;;;;;;4984203;28;20030;-56
2021/12/27 05:30:16;;;;;;;3.90;2.80;;;17.50;56.30;;;;;;4981521;28;20498;-51
2021/12/27 05:32:43;;;;;;;4.38;3.00;;;17.50;55.70;;;;;;4980888;28;20046;-56
2021/12/27 05:35:09;;;;;;;4.55;2.80;;;17.40;55.70;;;;;;4980760;28;20034;-54
2021/12/27 05:37:34;;;;;;;3.55;2.85;;;17.50;55.70;;;;;;4947586;28;1014394;-56
2021/12/27 05:40:04;;;;;;;5.05;3.25;;;17.50;55.70;;;;;;4983641;28;20549;-55
2021/12/27 05:42:31;;;;;;;3.95;2.65;;;17.40;55.70;;;;;;4982512;28;20641;-55
2021/12/27 05:44:57;;;;;;;7.00;3.40;;;17.50;55.80;;;;;;4981269;28;20034;-55
2021/12/27 05:47:22;;;;;;;6.07;3.60;;;17.40;55.70;;;;;;4982800;28;20458;-52
2021/12/27 05:49:48;;;;;;;4.35;3.03;;;17.50;55.80;;;;;;4982541;28;20038;-54
2021/12/27 05:52:13;;;;;;;4.47;2.80;;;17.50;55.80;;;;;;4981371;28;20306;-51
2021/12/27 05:54:39;;;;;;;5.63;2.80;;;17.40;55.80;;;;;;4988197;28;20105;-54
2021/12/27 05:57:04;;;;;;;3.75;2.50;;;17.40;55.80;;;;;;4981921;28;20453;-56
2021/12/27 05:59:30;;;;;;;5.38;2.72;;;17.40;55.80;;;;;;4992170;28;20106;-55
2021/12/27 06:01:56;;;;;;;4.15;2.80;;;17.40;55.80;;;;;;5000036;28;20327;-57
2021/12/27 06:04:21;;;;;;;4.07;3.05;;;17.40;55.80;;;;;;4991889;28;20085;-51
2021/12/27 06:06:47;;;;;;;4.05;2.97;;;17.40;55.80;;;;;;4982530;28;20509;-53
2021/12/27 06:09:12;;;;;;;5.20;3.38;;;17.40;55.80;;;;;;4979177;28;20413;-56
2021/12/27 06:11:38;;;;;;;4.00;2.92;;;17.40;55.80;;;;;;4979000;28;20034;-54
2021/12/27 06:14:03;;;;;;;5.00;3.10;;;17.40;56.40;;;;;;4984928;28;20054;-52
2021/12/27 06:16:29;;;;;;;3.25;2.67;;;17.40;55.80;;;;;;4986278;28;20046;-57
2021/12/27 06:18:55;;;;;;;5.05;2.92;;;17.40;55.80;;;;;;4987999;28;20046;-53
2021/12/27 06:21:20;;;;;;;6.20;3.42;;;17.40;55.80;;;;;;4985543;28;20752;-52
2021/12/27 06:23:46;;;;;;;4.18;2.75;;;17.40;55.80;;;;;;4988011;28;20044;-53
2021/12/27 06:26:11;;;;;;;3.88;3.20;;;17.40;55.80;;;;;;4987424;28;20072;-57
2021/12/27 06:28:38;;;;;;;5.15;3.10;;;17.40;55.80;;;;;;4977280;28;20409;-56
2021/12/27 06:31:04;;;;;;;4.15;2.97;;;17.40;55.80;;;;;;4983947;28;20030;-55
2021/12/27 06:33:29;;;;;;;4.30;2.75;;;17.40;55.80;;;;;;4976399;28;20481;-56
2021/12/27 06:35:55;;;;;;;3.75;2.90;;;17.40;55.80;;;;;;4988909;28;20482;-53
2021/12/27 06:38:24;;;;;;;6.07;3.08;;;17.40;55.90;;;;;;4980398;28;20030;-54
2021/12/27 06:40:49;;;;;;;4.05;2.92;;;17.40;55.80;;;;;;4982267;28;20026;-53
2021/12/27 06:43:15;;;;;;;5.32;2.83;;;17.40;55.80;;;;;;4978072;28;20042;-54
2021/12/27 06:45:41;;;;;;;4.55;2.70;;;17.30;55.80;;;;;;4985357;28;20068;-53
2021/12/27 06:48:06;;;;;;;3.53;3.03;;;17.40;55.80;;;;;;4985434;28;20034;-54
2021/12/27 06:50:31;;;;;;;3.90;2.90;;;17.30;55.80;;;;;;4988743;28;20041;-51
2021/12/27 06:52:57;;;;;;;4.70;3.38;;;17.30;55.80;;;;;;4985410;28;20037;-52
2021/12/27 06:55:22;;;;;;;5.50;2.92;;;17.30;56.30;;;;;;4990560;28;20045;-55
2021/12/27 06:57:49;;;;;;;2.90;2.38;;;17.30;55.70;;;;;;4984891;28;20065;-57
2021/12/27 07:00:15;;;;;;;7.65;2.70;;;17.30;55.70;;;;;;4986097;28;20034;-55
2021/12/27 07:02:41;;;;;;;2.92;2.60;;;17.30;55.70;;;;;;4984873;28;20370;-56
2021/12/27 07:05:06;;;;;;;5.95;3.10;;;17.30;55.70;;;;;;4985314;28;20037;-56
2021/12/27 07:07:32;;;;;;;4.88;2.80;;;17.30;55.70;;;;;;4985099;28;20121;-52
2021/12/27 07:09:57;;;;;;;3.88;2.72;;;17.30;55.70;;;;;;4984231;28;20560;-53
2021/12/27 07:12:23;;;;;;;4.30;2.70;;;17.30;55.60;;;;;;4984859;28;20069;-54
2021/12/27 07:14:49;;;;;;;5.53;3.22;;;17.30;55.70;;;;;;4985420;28;20046;-54
2021/12/27 07:17:15;;;;;;;4.20;2.97;;;17.30;55.70;;;;;;4982824;28;20030;-56
2021/12/27 07:19:41;;;;;;;4.57;2.83;;;17.30;55.60;;;;;;4983337;28;20050;-58
2021/12/27 07:22:06;;;;;;;5.55;3.03;;;17.40;55.60;;;;;;4985546;28;20030;-57
2021/12/27 07:24:32;;;;;;;5.82;3.05;;;17.40;55.60;;;;;;4984227;28;20037;-58
2021/12/27 07:26:57;;;;;;;5.75;3.20;;;17.30;55.60;;;;;;4985217;28;20048;-52
2021/12/27 07:29:23;;;;;;;4.97;2.72;;;17.40;55.70;;;;;;4983984;28;20117;-56
2021/12/27 07:31:48;;;;;;;6.22;2.90;;;17.40;55.70;;;;;;4985238;28;20027;-54
2021/12/27 07:34:14;;;;;;;5.13;3.58;;;17.30;55.70;;;;;;4984740;28;20060;-54
2021/12/27 07:36:40;;;;;;;8.48;3.28;;;17.40;55.80;;;;;;4991177;28;20038;-52
2021/12/27 07:39:06;;;;;;;6.95;3.03;;;17.40;55.90;;;;;;4984029;28;20070;-55
2021/12/27 07:41:31;;;;;;;4.78;2.97;;;17.30;56.50;;;;;;4984212;28;20038;-55
2021/12/27 07:43:57;;;;;;;6.82;3.88;;;17.30;56.00;;;;;;4984312;28;20516;-54
2021/12/27 07:46:23;;;;;;;8.27;3.45;;;17.40;56.10;;;;;;4985097;28;20038;-51
2021/12/27 07:48:49;;;;;;;6.15;3.80;;;17.40;56.10;;;;;;4982581;28;20034;-52
2021/12/27 07:51:14;;;;;;;11.68;4.72;;;17.30;56.10;;;;;;4982716;28;20151;-56
2021/12/27 07:53:40;;;;;;;6.57;3.95;;;17.40;56.20;;;;;;4983905;28;20109;-56
2021/12/27 07:56:07;;;;;;;9.00;4.25;;;17.40;56.20;;;;;;4987837;28;20552;-57
2021/12/27 07:58:32;;;;;;;8.10;4.65;;;17.30;56.20;;;;;;4978630;28;20073;-51
2021/12/27 08:00:58;;;;;;;9.00;5.13;;;17.30;56.20;;;;;;4985126;28;20027;-54
2021/12/27 08:03:23;;;;;;;10.80;5.05;;;17.30;56.20;;;;;;4983738;28;20030;-53
2021/12/27 08:05:49;;;;;;;8.85;5.30;;;17.30;56.30;;;;;;4982388;28;20434;-52
2021/12/27 08:08:15;;;;;;;7.93;4.45;;;17.30;56.20;;;;;;4982091;28;20037;-54
2021/12/27 08:10:41;;;;;;;9.65;5.60;;;17.30;56.20;;;;;;4981086;28;20030;-51
2021/12/27 08:13:07;;;;;;;9.68;5.53;;;17.30;56.20;;;;;;4981954;28;20022;-52
2021/12/27 08:15:33;;;;;;;11.20;5.32;;;17.30;56.30;;;;;;4983708;28;20045;-53
2021/12/27 08:17:59;;;;;;;10.75;5.30;;;17.30;56.20;;;;;;4977222;28;20121;-56
2021/12/27 08:20:24;;;;;;;36.65;18.05;;;17.30;56.30;;;;;;4980524;28;20449;-58
2021/12/27 08:22:50;;;;;;;74.15;31.27;;;17.30;56.40;;;;;;4983298;28;20708;-52
2021/12/27 08:25:16;;;;;;;63.20;30.98;;;17.30;56.60;;;;;;4983177;28;20041;-54
2021/12/27 08:27:42;;;;;;;53.90;25.75;;;17.30;56.50;;;;;;4987421;28;20046;-54
2021/12/27 08:30:08;;;;;;;50.05;25.75;;;17.30;56.40;;;;;;4980392;28;20516;-55
2021/12/27 08:32:34;;;;;;;63.40;31.33;;;17.30;56.20;;;;;;4982751;28;20126;-57
2021/12/27 08:35:02;;;;;;;74.28;34.90;;;17.30;55.80;;;;;;4982788;28;20030;-56
2021/12/27 08:37:31;;;;;;;69.03;32.15;;;17.30;55.60;;;;;;5002801;23;20044;-61
2021/12/27 08:39:56;;;;;;;67.60;31.23;;;17.30;55.60;;;;;;5002085;28;20037;-56
2021/12/27 08:42:22;;;;;;;61.45;27.95;;;17.20;55.40;;;;;;5002477;28;20049;-55
2021/12/27 08:44:47;;;;;;;49.50;24.73;;;17.20;54.80;;;;;;5003508;28;20026;-55
2021/12/27 08:47:15;;;;;;;54.88;25.45;;;17.20;54.60;;;;;;4984799;28;20036;-55
2021/12/27 08:49:41;;;;;;;51.38;23.65;;;17.10;54.70;;;;;;4982409;28;20045;-55
2021/12/27 08:52:06;;;;;;;48.35;23.27;;;17.10;55.00;;;;;;4986060;28;20035;-58
2021/12/27 08:54:32;;;;;;;43.83;23.10;;;17.10;55.40;;;;;;4982695;28;20071;-54
2021/12/27 08:56:57;;;;;;;48.75;23.17;;;17.00;55.50;;;;;;4986825;28;20038;-56
2021/12/27 08:59:23;;;;;;;38.30;20.85;;;17.00;55.70;;;;;;4981505;28;20375;-55
2021/12/27 09:01:48;;;;;;;45.03;21.33;;;16.90;55.80;;;;;;4984034;28;20023;-56
2021/12/27 09:04:14;;;;;;;41.78;21.17;;;16.90;55.90;;;;;;4981309;28;20161;-60
2021/12/27 09:06:39;;;;;;;40.90;20.25;;;16.90;55.80;;;;;;4983386;28;20030;-57
2021/12/27 09:09:05;;;;;;;38.63;19.02;;;17.00;56.00;;;;;;4982584;28;20512;-57
2021/12/27 09:11:30;;;;;;;38.17;19.85;;;16.90;56.00;;;;;;4982637;28;20026;-56
2021/12/27 09:13:56;;;;;;;35.13;16.90;;;17.00;56.10;;;;;;4980970;28;20027;-58
2021/12/27 09:16:21;;;;;;;34.05;19.10;;;16.90;56.10;;;;;;4982922;28;20030;-56
2021/12/27 09:18:47;;;;;;;34.20;17.45;;;16.90;56.10;;;;;;4979797;28;20108;-58
2021/12/27 09:21:12;;;;;;;32.80;17.33;;;16.90;56.20;;;;;;4981558;28;20026;-56
2021/12/27 09:23:38;;;;;;;35.95;17.77;;;17.00;56.20;;;;;;4982092;28;20022;-57
2021/12/27 09:26:03;;;;;;;37.85;18.08;;;17.00;56.20;;;;;;4982448;28;20018;-59
2021/12/27 09:28:29;;;;;;;37.78;17.35;;;17.00;56.30;;;;;;4989962;28;20042;-51
2021/12/27 09:30:55;;;;;;;30.13;16.02;;;17.10;56.30;;;;;;4980940;28;20574;-60
2021/12/27 09:33:22;;;;;;;33.30;15.95;;;17.10;56.30;;;;;;4980374;28;20039;-58
2021/12/27 09:35:47;;;;;;;32.95;15.07;;;17.10;56.20;;;;;;4974047;28;20074;-58
2021/12/27 09:38:13;;;;;;;27.83;14.75;;;17.10;56.10;;;;;;4988087;28;20034;-57
2021/12/27 09:40:39;;;;;;;26.85;14.38;;;17.20;56.10;;;;;;4979272;28;20513;-56
2021/12/27 09:43:04;;;;;;;28.30;13.15;;;17.20;56.00;;;;;;4981235;28;20032;-53
2021/12/27 09:45:30;;;;;;;27.55;12.95;;;17.20;55.90;;;;;;4980071;28;20038;-57
2021/12/27 09:47:55;;;;;;;27.40;12.95;;;17.20;55.80;;;;;;4980657;28;20057;-58
2021/12/27 09:50:35;;;;;;;24.23;12.48;;;17.30;55.80;;;;;;4981195;28;20038;-59
2021/12/27 09:53:01;;;;;;;24.40;13.25;;;17.20;55.70;;;;;;4982442;28;20031;-58
2021/12/27 09:55:27;;;;;;;21.55;12.50;;;17.30;55.70;;;;;;4980058;28;20437;-52
2021/12/27 09:57:53;;;;;;;23.85;12.70;;;17.30;55.70;;;;;;4981462;28;20038;-54
2021/12/27 10:00:18;;;;;;;20.92;11.52;;;17.30;55.70;;;;;;4981543;28;20037;-57
2021/12/27 10:02:45;;;;;;;24.77;12.02;;;17.30;55.60;;;;;;4980943;28;20038;-54
2021/12/27 10:05:11;;;;;;;25.10;11.77;;;17.30;55.50;;;;;;4980835;28;20489;-56
2021/12/27 10:07:41;;;;;;;24.35;11.55;;;17.30;55.50;;;;;;4978768;28;20057;-56
2021/12/27 10:10:08;;;;;;;20.75;11.18;;;17.40;55.50;;;;;;4979695;28;20034;-55
2021/12/27 10:12:34;;;;;;;26.88;12.88;;;17.40;55.50;;;;;;4981614;28;20026;-57
2021/12/27 10:15:00;;;;;;;27.05;12.05;;;17.40;55.40;;;;;;4982283;28;20457;-58
2021/12/27 10:17:26;;;;;;;19.20;10.43;;;17.40;55.40;;;;;;4981573;28;20042;-56
2021/12/27 10:19:52;;;;;;;21.73;10.80;;;17.40;55.30;;;;;;4983154;28;20031;-57
2021/12/27 10:22:18;;;;;;;23.02;11.07;;;17.40;55.30;;;;;;4981843;28;20030;-58
2021/12/27 10:24:45;;;;;;;19.77;10.45;;;17.40;55.20;;;;;;4981291;28;20682;-58
2021/12/27 10:27:10;;;;;;;23.30;11.52;;;17.40;55.20;;;;;;4979655;28;20023;-60
2021/12/27 10:29:37;;;;;;;18.35;9.88;;;17.40;55.20;;;;;;4985899;28;20035;-53
2021/12/27 10:32:04;;;;;;;20.67;9.82;;;17.40;55.10;;;;;;4979587;28;20089;-57
2021/12/27 10:34:50;;;;;;;21.98;10.52;;;17.40;55.20;;;;;;4983079;28;20467;-55
2021/12/27 10:37:22;;;;;;;17.63;10.20;;;17.40;55.10;;;;;;4980961;28;20044;-53
2021/12/27 10:39:59;;;;;;;17.20;8.88;;;17.50;55.10;;;;;;4980959;28;20046;-53
2021/12/27 10:42:29;;;;;;;20.38;9.27;;;17.50;55.00;;;;;;4979643;28;20043;-57
2021/12/27 10:44:59;;;;;;;19.92;9.18;;;17.50;54.90;;;;;;4981473;28;20143;-55
2021/12/27 10:47:45;;;;;;;17.55;8.80;;;17.50;54.90;;;;;;4953867;28;20068;-58
2021/12/27 10:50:12;;;;;;;18.40;9.15;;;17.50;54.80;;;;;;4986206;28;20039;-58
2021/12/27 10:52:56;;;;;;;16.52;8.60;;;17.50;54.70;;;;;;4982690;28;20542;-55
2021/12/27 10:55:27;;;;;;;17.13;8.40;;;17.60;54.80;;;;;;4984916;28;20048;-57
2021/12/27 10:58:07;;;;;;;18.50;9.07;;;17.60;54.80;;;;;;4979509;28;20311;-56
2021/12/27 11:00:32;;;;;;;13.50;7.38;;;17.50;54.80;;;;;;4982636;28;20045;-59
2021/12/27 11:03:01;;;;;;;17.25;8.60;;;17.50;54.90;;;;;;4984144;28;20030;-54
2021/12/27 11:05:27;;;;;;;18.35;8.68;;;17.50;54.70;;;;;;4984517;28;20853;-53
2021/12/27 11:07:54;;;;;;;13.48;8.00;;;17.60;54.70;;;;;;4984597;28;20109;-57
2021/12/27 11:10:20;;;;;;;14.77;9.82;;;17.50;54.80;;;;;;4983741;28;20065;-58
2021/12/27 11:12:49;;;;;;;17.00;8.65;;;17.50;54.70;;;;;;4984260;28;20570;-58
2021/12/27 11:15:15;;;;;;;14.52;7.90;;;17.60;54.80;;;;;;4984000;28;20039;-59
2021/12/27 11:17:42;;;;;;;15.75;7.75;;;17.60;54.80;;;;;;4982571;28;20406;-54
2021/12/27 11:20:09;;;;;;;13.95;6.93;;;17.50;55.30;;;;;;4986358;28;20129;-58
2021/12/27 11:22:36;;;;;;;13.18;7.35;;;17.50;54.70;;;;;;4984685;28;20030;-56
2021/12/27 11:25:21;;;;;;;14.43;7.80;;;17.60;54.70;;;;;;4970891;28;20544;-55
2021/12/27 11:27:47;;;;;;;14.10;6.82;;;17.60;54.70;;;;;;4982898;28;20584;-57
2021/12/27 11:30:13;;;;;;;11.10;6.82;;;17.60;54.60;;;;;;4984331;28;20117;-54
2021/12/27 11:33:01;;;;;;;13.43;6.43;;;17.60;54.50;;;;;;4982664;28;20073;-58
2021/12/27 11:35:31;;;;;;;11.68;7.15;;;17.60;54.60;;;;;;4978528;28;20034;-58
2021/12/27 11:37:59;;;;;;;10.68;6.00;;;17.60;54.60;;;;;;4983604;28;20058;-63
2021/12/27 11:40:24;;;;;;;11.68;6.60;;;17.60;54.50;;;;;;4983562;28;20038;-55
2021/12/27 11:42:55;;;;;;;11.35;6.90;;;17.60;54.50;;;;;;4984046;28;20038;-59
2021/12/27 11:45:40;;;;;;;12.43;6.40;;;17.60;54.50;;;;;;4984080;28;20042;-55
2021/12/27 11:48:07;;;;;;;12.20;6.68;;;17.60;54.50;;;;;;4983065;28;20040;-58
2021/12/27 11:50:33;;;;;;;10.20;6.78;;;17.60;54.40;;;;;;4985261;28;20038;-57
2021/12/27 11:53:05;;;;;;;10.75;6.65;;;17.60;54.40;;;;;;4984154;28;20782;-55
2021/12/27 11:55:38;;;;;;;12.23;6.50;;;17.60;54.50;;;;;;4988841;28;20614;-59
2021/12/27 11:58:03;;;;;;;10.93;6.32;;;17.50;54.40;;;;;;4983909;28;20493;-58
2021/12/27 12:00:33;;;;;;;11.23;6.00;;;17.60;54.40;;;;;;4983072;28;20037;-60
2021/12/27 12:03:01;;;;;;;8.82;5.88;;;17.50;54.40;;;;;;4983870;28;20034;-59
2021/12/27 12:05:42;;;;;;;10.02;5.38;;;17.50;54.50;;;;;;4991365;28;20088;-63
2021/12/27 12:08:21;;;;;;;9.88;5.68;;;17.50;54.50;;;;;;4972731;28;20040;-57
2021/12/27 12:11:06;;;;;;;8.88;5.20;;;17.50;54.50;;;;;;4977694;28;20077;-54
2021/12/27 12:13:45;;;;;;;7.53;4.85;;;17.40;54.60;;;;;;4978174;28;20164;-56
2021/12/27 12:16:18;;;;;;;7.43;4.57;;;17.40;54.60;;;;;;4969178;28;20047;-53
2021/12/27 12:19:09;;;;;;;7.97;4.78;;;17.40;54.50;;;;;;4975390;28;20231;-58
2021/12/27 12:21:47;;;;;;;6.97;4.97;;;17.30;54.50;;;;;;4985553;28;20030;-55
2021/12/27 12:24:17;;;;;;;8.27;4.65;;;17.40;54.60;;;;;;4982052;28;20023;-58
2021/12/27 12:26:49;;;;;;;8.98;5.47;;;17.40;54.20;;;;;;4983043;28;20417;-56
2021/12/27 12:29:15;;;;;;;8.52;4.90;;;17.40;54.20;;;;;;4982603;28;20396;-52
2021/12/27 12:31:40;;;;;;;7.82;4.40;;;17.40;54.10;;;;;;4983992;28;20117;-57
2021/12/27 12:34:12;;;;;;;7.55;5.00;;;17.40;54.10;;;;;;4981575;28;20030;-55
2021/12/27 12:36:51;;;;;;;8.25;4.95;;;17.50;53.90;;;;;;4983225;28;20030;-54
2021/12/27 12:39:17;;;;;;;7.55;4.55;;;17.50;54.00;;;;;;4976111;28;20057;-54
2021/12/27 12:41:43;;;;;;;7.13;4.15;;;17.50;53.90;;;;;;4980151;28;20033;-55
2021/12/27 12:44:09;;;;;;;7.63;5.03;;;17.50;53.90;;;;;;4981876;28;20030;-57